This is the latest recevied weather packets stored in our database for station/object N1TKS. If no packets are shown the sender has not sent any weather packets the latest 1 day(s).
| Time | Temp. | Humidity | Pressure | Rain* | Wind** | Luminosity | Snow |
|---|---|---|---|---|---|---|---|
| 1778034549 | 18.33° C | 70% | 1010.8 hPa | 0 mm | 0 m/s | - | - |
| 1778034470 | 18.33° C | 70% | 1010.8 hPa | 0 mm | 0 m/s | - | - |
| 1778034413 | 18.33° C | 70% | 1010.8 hPa | 0 mm | 0 m/s | - | - |
| 1778034378 | 18.89° C | 69% | 1010.7 hPa | 0 mm | 0 m/s | - | - |
| 1778034362 | 18.89° C | 68% | 1010.7 hPa | 0 mm | 0.89 m/s, 188° | - | - |
| 1778033814 | 18.33° C | 70% | 1010.8 hPa | 0 mm | 0 m/s | - | - |
| 1778033515 | 18.33° C | 69% | 1010.8 hPa | 0 mm | 0 m/s | - | - |
| 1778033214 | 18.89° C | 69% | 1010.7 hPa | 0 mm | 0 m/s | - | - |
| 1778032914 | 18.89° C | 68% | 1010.7 hPa | 0 mm | 0 m/s | - | - |
| 1778032614 | 18.89° C | 68% | 1010.7 hPa | 0 mm | 0.89 m/s, 188° | - | - |
| 1778032457 | 18.89° C | 68% | 1010.5 hPa | 0 mm | 0.45 m/s, 172° | - | - |
| 1778032445 | 18.89° C | 68% | 1010.3 hPa | 0 mm | 0 m/s | - | - |
| 1778032315 | 18.89° C | 68% | 1010.6 hPa | 0 mm | 0.45 m/s, 171° | - | - |
| 1778032092 | 18.89° C | 68% | 1010.6 hPa | 0 mm | 0.45 m/s, 171° | - | - |
| 1778032014 | 18.89° C | 68% | 1010.6 hPa | 0 mm | 0.45 m/s, 171° | - | - |
| 1778031414 | 18.89° C | 68% | 1010.5 hPa | 0 mm | 0.45 m/s, 172° | - | - |
| 1778031117 | 18.89° C | 68% | 1010.4 hPa | 0 mm | 0.45 m/s, 188° | - | - |
| 1778030814 | 18.89° C | 68% | 1010.3 hPa | 0 mm | 0 m/s | - | - |
| 1778030519 | 18.89° C | 68% | 1009.9 hPa | 0 mm | 0.45 m/s, 296° | - | - |
| 1778029915 | 18.89° C | 68% | 1010.2 hPa | 0 mm | 0.45 m/s, 186° | - | - |
| 1778029615 | 18.89° C | 68% | 1010.1 hPa | 0 mm | 0.45 m/s, 174° | - | - |
| 1778029314 | 18.89° C | 68% | 1010 hPa | 0 mm | 0.45 m/s, 223° | - | - |
| 1778029014 | 18.89° C | 68% | 1010 hPa | 0 mm | 0.45 m/s, 263° | - | - |
| 1778028715 | 18.89° C | 68% | 1009.9 hPa | 0 mm | 0.45 m/s, 296° | - | - |
| 1778028606 | 18.89° C | 68% | 1009.7 hPa | 0 mm | 0 m/s | - | - |
* Rain latest hour (hover to see other rain measurements)
** Current wind speed in m/s (hover to see current wind gust speed)